Time;durP1;ratioP1;P1;durP2;ratioP2;P2;SDS_P1;SDS_P2;PMS_P1;PMS_P2;Temp;Humidity;BMP_temperature;BMP_pressure;BME280_temperature;BME280_humidity;BME280_pressure;Samples;Min_cycle;Max_cycle;Signal;HPM_P1;HPM_P2
2021/07/26 00:01:23;;;;;;;15.17;12.60;;;18.50;96.80;;;;;;5111919;28;20047;-65
2021/07/26 00:03:49;;;;;;;20.60;14.77;;;18.50;96.90;;;;;;5112136;28;20055;-65
2021/07/26 00:06:15;;;;;;;19.53;13.70;;;18.50;96.90;;;;;;5111215;28;20056;-65
2021/07/26 00:08:41;;;;;;;15.60;13.33;;;18.60;96.90;;;;;;5112267;28;20050;-65
2021/07/26 00:11:11;;;;;;;20.63;15.30;;;18.50;97.00;;;;;;5111834;28;20047;-65
2021/07/26 00:13:38;;;;;;;21.00;18.80;;;18.50;97.00;;;;;;5111476;28;20131;-64
2021/07/26 00:16:05;;;;;;;21.77;17.80;;;18.50;97.00;;;;;;5112035;28;20054;-65
2021/07/26 00:18:31;;;;;;;23.27;17.77;;;18.50;97.00;;;;;;5111934;28;20048;-65
2021/07/26 00:20:58;;;;;;;24.90;19.57;;;18.50;97.00;;;;;;5111594;28;20040;-65
2021/07/26 00:23:24;;;;;;;19.73;17.73;;;18.50;97.00;;;;;;5111644;28;20062;-65
2021/07/26 00:25:51;;;;;;;21.97;17.57;;;18.50;96.90;;;;;;5112174;28;20096;-65
2021/07/26 00:28:16;;;;;;;21.97;18.93;;;18.50;96.90;;;;;;5111021;28;20407;-65
2021/07/26 00:30:42;;;;;;;22.97;19.30;;;18.50;96.90;;;;;;5111932;28;20045;-65
2021/07/26 00:34:06;;;;;;;21.83;17.63;;;18.50;97.00;;;;;;5114481;28;20064;-65
2021/07/26 00:36:38;;;;;;;24.30;18.63;;;18.40;97.00;;;;;;5074781;28;20538;-65
2021/07/26 00:39:06;;;;;;;21.10;18.80;;;18.40;97.00;;;;;;5115603;28;20389;-65
2021/07/26 00:41:33;;;;;;;21.87;19.17;;;18.40;97.10;;;;;;5115244;28;20051;-64
2021/07/26 00:43:58;;;;;;;22.43;19.90;;;18.40;97.10;;;;;;5115665;28;20491;-64
2021/07/26 00:46:24;;;;;;;22.80;20.40;;;18.30;97.10;;;;;;5115376;28;20062;-65
2021/07/26 00:48:51;;;;;;;21.90;19.67;;;18.30;97.10;;;;;;5115022;28;20036;-65
2021/07/26 00:51:17;;;;;;;22.63;20.20;;;18.30;97.20;;;;;;5115721;28;20051;-64
2021/07/26 00:53:43;;;;;;;22.87;20.40;;;18.30;97.20;;;;;;5115707;28;20043;-64
2021/07/26 00:56:09;;;;;;;27.60;20.40;;;18.30;97.30;;;;;;5114293;28;20094;-65
2021/07/26 00:58:35;;;;;;;21.83;19.37;;;18.20;97.30;;;;;;5115621;28;20400;-65
2021/07/26 01:01:02;;;;;;;25.53;19.27;;;18.30;97.40;;;;;;5115211;28;20047;-65
2021/07/26 01:03:28;;;;;;;27.33;20.37;;;18.20;97.40;;;;;;5114360;28;20050;-64
2021/07/26 01:05:53;;;;;;;22.67;20.27;;;18.30;97.40;;;;;;5115314;28;20039;-64
2021/07/26 01:08:20;;;;;;;24.50;21.90;;;18.20;97.40;;;;;;5114955;28;20758;-64
2021/07/26 01:10:46;;;;;;;30.93;20.67;;;18.20;97.40;;;;;;5114560;28;20047;-64
2021/07/26 01:13:11;;;;;;;25.60;22.07;;;18.20;97.40;;;;;;5115130;28;20070;-64
2021/07/26 01:15:37;;;;;;;28.73;22.27;;;18.20;97.50;;;;;;5114373;28;20054;-64
2021/07/26 01:18:21;;;;;;;27.53;22.07;;;18.10;97.50;;;;;;5115036;28;20400;-64
2021/07/26 01:20:57;;;;;;;24.70;22.07;;;18.10;97.60;;;;;;5114875;28;20094;-64
2021/07/26 01:23:24;;;;;;;31.03;23.87;;;18.00;97.60;;;;;;5114167;28;20048;-64
2021/07/26 01:25:51;;;;;;;28.70;24.83;;;18.00;97.70;;;;;;5115148;28;20100;-64
2021/07/26 01:28:18;;;;;;;25.90;22.00;;;18.00;97.70;;;;;;5114766;28;20047;-64
2021/07/26 01:30:45;;;;;;;33.67;27.67;;;18.00;97.80;;;;;;5114207;28;20048;-64
2021/07/26 01:33:12;;;;;;;31.80;25.67;;;18.00;97.90;;;;;;5114652;28;20160;-64
2021/07/26 01:35:38;;;;;;;28.13;24.07;;;18.00;97.90;;;;;;5114618;28;20093;-64
2021/07/26 01:38:05;;;;;;;27.00;23.53;;;18.00;97.90;;;;;;5113952;28;20070;-64
2021/07/26 01:40:34;;;;;;;32.00;28.70;;;18.00;97.90;;;;;;5114875;28;20056;-64
2021/07/26 01:43:02;;;;;;;30.67;25.37;;;18.00;98.00;;;;;;5113700;28;20047;-64
2021/07/26 01:45:30;;;;;;;33.97;25.80;;;17.90;98.00;;;;;;5113364;28;20595;-64
2021/07/26 01:48:02;;;;;;;34.30;26.53;;;18.00;98.10;;;;;;5114519;28;20131;-64
2021/07/26 01:50:38;;;;;;;29.80;25.47;;;17.90;98.10;;;;;;5114610;28;20051;-64
2021/07/26 01:53:04;;;;;;;31.50;27.23;;;17.90;98.10;;;;;;5114228;28;20071;-64
2021/07/26 01:55:30;;;;;;;31.27;26.17;;;17.90;98.20;;;;;;5114625;28;20511;-64
2021/07/26 01:57:57;;;;;;;32.00;26.50;;;17.90;98.20;;;;;;5113622;28;20101;-64
2021/07/26 02:00:22;;;;;;;30.00;26.70;;;17.90;98.20;;;;;;5113976;28;20092;-64
2021/07/26 02:02:48;;;;;;;30.23;25.93;;;17.90;98.20;;;;;;5114436;28;20059;-65
2021/07/26 02:05:14;;;;;;;34.70;28.20;;;18.00;98.20;;;;;;5113398;28;20071;-64
2021/07/26 02:07:39;;;;;;;30.87;26.80;;;18.00;98.30;;;;;;5114345;28;20048;-64
2021/07/26 02:10:05;;;;;;;33.90;29.17;;;17.90;98.20;;;;;;5113868;28;20040;-64
2021/07/26 02:12:31;;;;;;;35.13;28.60;;;17.90;98.20;;;;;;5113350;28;20059;-64
2021/07/26 02:14:59;;;;;;;33.90;29.70;;;17.90;98.30;;;;;;5113893;28;20040;-64
2021/07/26 02:17:25;;;;;;;35.30;30.63;;;17.90;98.30;;;;;;5113813;28;20453;-64
2021/07/26 02:19:50;;;;;;;32.23;28.23;;;17.90;98.30;;;;;;5113226;28;20127;-64
2021/07/26 02:22:16;;;;;;;32.20;27.10;;;17.90;98.40;;;;;;5113423;28;20183;-65
2021/07/26 02:24:41;;;;;;;33.40;29.80;;;17.90;98.50;;;;;;5113864;28;20134;-65
2021/07/26 02:27:13;;;;;;;34.22;30.67;;;17.90;98.40;;;;;;5112765;28;20047;-65
2021/07/26 02:29:38;;;;;;;38.87;30.60;;;17.90;98.40;;;;;;5113662;28;20051;-64
2021/07/26 02:32:04;;;;;;;35.93;29.63;;;17.80;98.40;;;;;;5113539;28;20074;-65
2021/07/26 02:34:30;;;;;;;35.73;30.80;;;17.80;98.40;;;;;;5112935;28;20067;-65
2021/07/26 02:36:59;;;;;;;40.17;32.53;;;17.90;98.40;;;;;;5113735;28;20090;-64
2021/07/26 02:39:25;;;;;;;39.20;31.47;;;17.80;98.40;;;;;;5113485;28;20447;-64
2021/07/26 02:41:51;;;;;;;42.10;32.20;;;17.80;98.50;;;;;;5112685;28;20043;-65
2021/07/26 02:44:17;;;;;;;36.43;30.03;;;17.70;98.50;;;;;;5113055;28;20100;-65
2021/07/26 02:46:42;;;;;;;36.80;31.60;;;17.70;98.60;;;;;;5113492;28;20393;-65
2021/07/26 02:49:08;;;;;;;32.97;29.47;;;17.70;98.60;;;;;;5112403;28;20443;-64
2021/07/26 02:51:33;;;;;;;37.37;30.53;;;17.70;98.60;;;;;;5113294;28;20043;-64
2021/07/26 02:53:59;;;;;;;33.73;28.70;;;17.70;98.60;;;;;;5112393;28;20446;-64
2021/07/26 02:56:25;;;;;;;31.10;27.80;;;17.70;98.60;;;;;;5112682;28;20518;-65
2021/07/26 02:58:51;;;;;;;37.40;33.20;;;17.80;98.60;;;;;;5113027;28;20055;-65
2021/07/26 03:01:18;;;;;;;40.90;34.30;;;17.70;98.60;;;;;;5112218;27;20147;-65
2021/07/26 03:03:44;;;;;;;39.07;34.37;;;17.70;98.60;;;;;;5113256;28;20052;-65
2021/07/26 03:06:17;;;;;;;43.10;35.50;;;17.80;98.60;;;;;;5112837;28;20051;-65
2021/07/26 03:08:43;;;;;;;40.60;35.23;;;17.80;98.60;;;;;;5112061;28;20621;-65
2021/07/26 03:11:10;;;;;;;39.07;32.07;;;17.80;98.60;;;;;;5112654;28;20095;-65
2021/07/26 03:13:40;;;;;;;42.73;34.50;;;17.80;98.50;;;;;;5112783;28;20109;-65
2021/07/26 03:16:11;;;;;;;45.77;36.50;;;17.80;98.50;;;;;;5111874;28;20043;-65
2021/07/26 03:18:36;;;;;;;39.10;31.58;;;17.70;98.50;;;;;;5112858;28;20047;-65
2021/07/26 03:21:03;;;;;;;44.60;35.90;;;17.70;98.50;;;;;;5112888;28;20389;-65
2021/07/26 03:23:29;;;;;;;39.27;33.60;;;17.70;98.50;;;;;;5111840;28;20149;-66
2021/07/26 03:25:55;;;;;;;42.60;34.37;;;17.70;98.60;;;;;;5112742;28;20502;-65
2021/07/26 03:28:21;;;;;;;48.87;40.40;;;17.60;98.60;;;;;;5112582;28;20125;-65
2021/07/26 03:30:47;;;;;;;48.27;35.13;;;17.60;98.60;;;;;;5111827;28;20085;-65
2021/07/26 03:33:13;;;;;;;52.43;42.33;;;17.60;98.60;;;;;;5112487;28;20097;-65
2021/07/26 03:35:39;;;;;;;48.67;39.83;;;17.60;98.70;;;;;;5112726;28;20101;-65
2021/07/26 03:38:05;;;;;;;50.20;40.30;;;17.60;98.70;;;;;;5111463;28;20101;-65
2021/07/26 03:40:32;;;;;;;48.27;38.20;;;17.60;98.80;;;;;;5112142;28;20120;-65
2021/07/26 03:42:58;;;;;;;49.80;37.90;;;17.50;98.80;;;;;;5112072;28;20047;-65
2021/07/26 03:45:24;;;;;;;41.30;33.07;;;17.50;98.80;;;;;;5111019;28;20089;-65
2021/07/26 03:47:51;;;;;;;42.17;34.03;;;17.50;98.80;;;;;;5112101;28;20456;-65
2021/07/26 03:50:18;;;;;;;38.60;31.77;;;17.50;98.90;;;;;;5107935;28;20468;-65
2021/07/26 03:52:50;;;;;;;41.70;32.33;;;17.50;98.80;;;;;;5111884;28;20098;-65
2021/07/26 03:55:24;;;;;;;27.83;24.40;;;17.50;98.80;;;;;;5111792;28;20048;-65
2021/07/26 03:57:52;;;;;;;28.83;23.00;;;17.40;98.80;;;;;;5111172;28;20135;-65
2021/07/26 04:00:22;;;;;;;26.13;20.80;;;17.40;98.80;;;;;;5108897;28;20044;-65
2021/07/26 04:02:54;;;;;;;24.25;20.02;;;17.30;98.80;;;;;;5111727;28;20047;-65
2021/07/26 04:05:30;;;;;;;23.43;19.27;;;17.30;98.80;;;;;;5110824;28;20454;-64
2021/07/26 04:07:55;;;;;;;23.03;20.67;;;17.30;98.80;;;;;;5114621;28;20051;-65
2021/07/26 04:10:21;;;;;;;23.50;21.20;;;17.20;98.80;;;;;;5115916;28;20104;-65
2021/07/26 04:12:50;;;;;;;24.77;20.57;;;17.20;98.80;;;;;;5115171;28;20046;-65
2021/07/26 04:15:16;;;;;;;21.77;19.50;;;17.20;98.90;;;;;;5115852;28;20050;-64
2021/07/26 04:17:42;;;;;;;29.73;22.37;;;17.20;98.90;;;;;;5115602;28;20039;-65
2021/07/26 04:20:19;;;;;;;25.47;22.60;;;17.20;98.90;;;;;;5115050;28;20522;-65
2021/07/26 04:22:45;;;;;;;28.50;25.47;;;17.20;99.00;;;;;;5115758;28;20134;-65
2021/07/26 04:25:11;;;;;;;32.70;27.53;;;17.10;99.00;;;;;;5115347;28;20472;-65
2021/07/26 04:27:37;;;;;;;35.63;29.57;;;17.20;99.00;;;;;;5115155;28;20039;-64
2021/07/26 04:30:11;;;;;;;36.00;28.60;;;17.20;99.10;;;;;;5113213;28;20580;-65
2021/07/26 04:32:55;;;;;;;35.77;29.20;;;17.10;99.10;;;;;;5114967;28;20044;-64
2021/07/26 04:35:21;;;;;;;29.77;25.60;;;17.20;99.20;;;;;;5114507;28;20100;-64
2021/07/26 04:37:46;;;;;;;34.00;30.03;;;17.20;99.30;;;;;;5115584;28;20043;-64
2021/07/26 04:40:13;;;;;;;41.57;33.43;;;17.20;99.20;;;;;;5114359;28;20089;-64
2021/07/26 04:42:39;;;;;;;38.10;32.07;;;17.20;99.30;;;;;;5115380;28;20081;-64
2021/07/26 04:45:07;;;;;;;37.03;32.83;;;17.20;99.40;;;;;;5115209;28;20040;-64
2021/07/26 04:47:32;;;;;;;34.23;30.23;;;17.30;99.30;;;;;;5114632;28;20109;-64
2021/07/26 04:49:58;;;;;;;33.50;29.93;;;17.20;99.20;;;;;;5115536;28;20633;-64
2021/07/26 04:52:24;;;;;;;32.33;28.83;;;17.20;99.30;;;;;;5115122;28;20044;-65
2021/07/26 04:54:50;;;;;;;32.13;28.60;;;17.20;99.30;;;;;;5114374;28;20051;-65
2021/07/26 04:57:22;;;;;;;40.20;35.30;;;17.20;99.30;;;;;;5114699;28;20043;-65
2021/07/26 04:59:47;;;;;;;36.87;32.00;;;17.30;99.40;;;;;;5114908;28;20560;-64
2021/07/26 05:02:13;;;;;;;34.03;30.57;;;17.30;99.40;;;;;;5113726;28;20500;-65
2021/07/26 05:04:39;;;;;;;35.57;31.90;;;17.30;99.40;;;;;;5115069;28;20071;-64
2021/07/26 05:07:05;;;;;;;37.33;33.37;;;17.30;99.40;;;;;;5114654;28;20047;-64
2021/07/26 05:09:35;;;;;;;35.87;32.10;;;17.30;99.40;;;;;;5114234;28;20052;-64
2021/07/26 05:12:04;;;;;;;37.23;33.33;;;17.30;99.40;;;;;;5114371;28;20056;-65
2021/07/26 05:14:31;;;;;;;36.80;33.17;;;17.40;99.50;;;;;;5114595;28;20048;-64
2021/07/26 05:16:57;;;;;;;38.07;34.17;;;17.40;99.50;;;;;;5113968;28;20476;-65
2021/07/26 05:19:23;;;;;;;36.27;32.73;;;17.40;99.50;;;;;;5114081;27;20036;-65
2021/07/26 05:21:48;;;;;;;36.77;33.17;;;17.40;99.50;;;;;;5110363;28;20138;-65
2021/07/26 05:24:14;;;;;;;35.07;31.87;;;17.50;99.60;;;;;;5113315;28;20138;-65
2021/07/26 05:26:40;;;;;;;33.77;30.67;;;17.50;99.80;;;;;;5113480;28;20043;-65
2021/07/26 05:29:05;;;;;;;31.53;28.60;;;17.60;99.90;;;;;;5113026;28;20070;-65
2021/07/26 05:31:31;;;;;;;28.57;25.97;;;17.70;99.90;;;;;;5113686;28;20043;-65
2021/07/26 05:33:57;;;;;;;28.40;25.60;;;17.70;99.60;;;;;;5114427;28;20479;-65
2021/07/26 05:36:25;;;;;;;26.63;24.20;;;17.80;99.40;;;;;;5113500;28;20044;-65
2021/07/26 05:38:52;;;;;;;27.70;25.20;;;17.70;99.30;;;;;;5114141;28;20039;-65
2021/07/26 05:41:17;;;;;;;26.53;23.93;;;17.80;99.20;;;;;;5113779;28;20064;-65
2021/07/26 05:43:44;;;;;;;25.83;23.47;;;17.80;99.20;;;;;;5113522;28;20129;-65
2021/07/26 05:46:09;;;;;;;27.13;24.70;;;17.80;99.10;;;;;;5114058;28;20353;-64
2021/07/26 05:48:35;;;;;;;26.13;23.90;;;17.80;99.00;;;;;;5114085;28;20043;-65
2021/07/26 05:51:01;;;;;;;24.87;22.73;;;17.80;99.00;;;;;;5112818;28;20036;-65
2021/07/26 05:53:26;;;;;;;25.53;23.33;;;17.80;98.90;;;;;;5114221;28;20047;-65
2021/07/26 05:55:52;;;;;;;25.87;23.57;;;17.90;99.00;;;;;;5113545;28;20096;-64
2021/07/26 05:58:17;;;;;;;26.10;23.50;;;17.90;99.40;;;;;;5113016;28;20071;-65
2021/07/26 06:00:56;;;;;;;27.87;25.37;;;17.90;98.90;;;;;;5113944;28;20122;-64
2021/07/26 06:03:22;;;;;;;24.70;22.17;;;18.00;99.00;;;;;;5111660;28;20047;-64
2021/07/26 06:05:48;;;;;;;26.43;23.93;;;18.00;98.90;;;;;;5113237;28;20123;-65
2021/07/26 06:08:14;;;;;;;27.70;25.13;;;18.10;98.90;;;;;;5113155;28;20043;-65
2021/07/26 06:10:39;;;;;;;26.27;23.87;;;18.10;98.90;;;;;;5113482;28;20039;-65
2021/07/26 06:13:07;;;;;;;26.43;23.73;;;18.20;99.00;;;;;;5112722;28;20040;-65
2021/07/26 06:15:33;;;;;;;24.60;22.20;;;18.30;98.90;;;;;;5113722;28;20051;-65
2021/07/26 06:17:58;;;;;;;23.83;21.53;;;18.30;98.80;;;;;;5112840;28;20401;-65
2021/07/26 06:20:24;;;;;;;20.97;18.80;;;18.40;98.70;;;;;;5113216;28;20062;-65
2021/07/26 06:22:53;;;;;;;19.83;17.97;;;18.50;99.00;;;;;;5112930;28;20051;-65
2021/07/26 06:25:19;;;;;;;20.40;18.50;;;18.60;98.40;;;;;;5109979;28;20040;-65
2021/07/26 06:27:44;;;;;;;19.37;17.27;;;18.70;98.10;;;;;;5113559;28;20064;-65
2021/07/26 06:30:11;;;;;;;18.97;17.07;;;18.80;97.80;;;;;;5112810;28;20040;-64
2021/07/26 06:32:37;;;;;;;18.47;16.67;;;18.90;97.50;;;;;;5112890;28;20483;-65
2021/07/26 06:35:04;;;;;;;18.33;16.30;;;19.00;97.20;;;;;;5113260;28;20043;-65
2021/07/26 06:37:30;;;;;;;14.67;13.13;;;19.10;97.10;;;;;;5113224;28;20499;-65
2021/07/26 06:39:56;;;;;;;14.90;13.07;;;19.10;96.80;;;;;;5112623;28;20048;-65
2021/07/26 06:42:21;;;;;;;13.83;12.43;;;19.20;96.50;;;;;;5113079;28;20492;-65
2021/07/26 06:44:47;;;;;;;13.10;11.43;;;19.30;96.20;;;;;;5113372;28;20074;-65
2021/07/26 06:47:12;;;;;;;12.13;10.93;;;19.40;96.20;;;;;;5112139;28;20069;-65
2021/07/26 06:49:38;;;;;;;11.43;10.33;;;19.50;96.30;;;;;;5113041;28;20063;-65
2021/07/26 06:52:04;;;;;;;11.73;10.00;;;19.60;96.20;;;;;;5112648;28;20502;-65
2021/07/26 06:54:30;;;;;;;11.37;10.23;;;19.80;96.00;;;;;;5112423;28;20050;-65
2021/07/26 06:56:55;;;;;;;12.23;9.30;;;19.90;95.90;;;;;;5113153;28;20052;-65
2021/07/26 06:59:21;;;;;;;10.57;9.47;;;20.10;96.00;;;;;;5112860;28;20067;-65
2021/07/26 07:01:47;;;;;;;9.77;7.50;;;20.30;95.30;;;;;;5111989;28;20066;-65
2021/07/26 07:04:13;;;;;;;8.33;7.43;;;20.40;94.70;;;;;;5112530;28;20124;-65
2021/07/26 07:06:40;;;;;;;10.73;8.65;;;20.30;94.40;;;;;;5112718;28;20108;-65
2021/07/26 07:09:06;;;;;;;8.30;6.80;;;20.30;94.30;;;;;;5112294;28;20055;-65
2021/07/26 07:11:31;;;;;;;10.30;7.63;;;20.30;94.10;;;;;;5112590;28;20380;-65
2021/07/26 07:13:57;;;;;;;10.27;6.53;;;20.30;93.70;;;;;;5112784;28;20070;-65
2021/07/26 07:16:24;;;;;;;8.00;6.53;;;20.40;93.40;;;;;;5111401;28;20047;-65
2021/07/26 07:18:55;;;;;;;8.27;5.57;;;20.40;93.00;;;;;;5112576;28;20069;-65
2021/07/26 07:21:29;;;;;;;9.05;6.85;;;20.50;92.80;;;;;;5111581;28;20482;-65
2021/07/26 07:24:04;;;;;;;10.25;6.80;;;20.50;92.90;;;;;;5112305;28;20120;-65
2021/07/26 07:26:31;;;;;;;7.82;6.90;;;20.70;93.00;;;;;;5112550;28;20052;-65
2021/07/26 07:28:57;;;;;;;6.50;5.80;;;20.80;92.80;;;;;;5111877;28;20074;-66
2021/07/26 07:31:24;;;;;;;7.60;6.40;;;20.80;92.70;;;;;;5112227;28;20480;-66
2021/07/26 07:33:50;;;;;;;7.13;5.97;;;20.90;92.50;;;;;;5112325;28;20545;-66
2021/07/26 07:36:16;;;;;;;7.85;6.35;;;21.00;92.30;;;;;;5111453;28;20044;-66
2021/07/26 07:38:42;;;;;;;7.95;6.32;;;21.10;92.10;;;;;;5112385;28;20469;-65
2021/07/26 07:41:07;;;;;;;7.53;6.53;;;21.10;92.00;;;;;;5111964;28;20074;-66
2021/07/26 07:43:33;;;;;;;8.70;6.65;;;21.10;91.60;;;;;;5110694;28;20043;-65
2021/07/26 07:45:59;;;;;;;7.18;6.22;;;21.20;91.20;;;;;;5110561;28;20047;-65
2021/07/26 07:48:25;;;;;;;8.60;7.30;;;21.20;91.00;;;;;;5110859;28;20114;-65
2021/07/26 07:50:52;;;;;;;7.63;6.80;;;21.20;91.00;;;;;;5110689;28;20574;-65
2021/07/26 07:53:18;;;;;;;9.13;7.47;;;21.20;90.90;;;;;;5110609;28;20061;-66
2021/07/26 07:55:43;;;;;;;10.38;7.40;;;21.20;91.00;;;;;;5111356;28;20047;-65
2021/07/26 07:58:12;;;;;;;11.45;8.35;;;21.30;91.00;;;;;;5110192;28;20052;-65
2021/07/26 08:00:37;;;;;;;10.60;8.18;;;21.30;90.80;;;;;;5111389;28;20175;-65
2021/07/26 08:03:04;;;;;;;8.50;7.53;;;21.30;90.80;;;;;;5110917;28;20055;-65
2021/07/26 08:05:31;;;;;;;9.65;7.82;;;21.30;90.90;;;;;;5110697;28;20434;-65
2021/07/26 08:07:57;;;;;;;8.70;7.40;;;21.30;90.90;;;;;;5111288;28;20170;-65
2021/07/26 08:10:23;;;;;;;9.18;6.63;;;21.40;91.10;;;;;;5110960;28;20036;-65
2021/07/26 08:12:49;;;;;;;8.50;7.13;;;21.40;90.80;;;;;;5110439;28;20059;-65
2021/07/26 08:15:15;;;;;;;8.25;7.10;;;21.50;90.80;;;;;;5111524;28;20050;-65
2021/07/26 08:17:42;;;;;;;7.40;6.68;;;21.50;90.70;;;;;;5110572;28;20480;-65
2021/07/26 08:20:10;;;;;;;8.48;6.43;;;21.70;90.70;;;;;;5111591;28;20189;-65
2021/07/26 08:22:36;;;;;;;6.80;5.35;;;21.90;90.20;;;;;;5108245;28;20084;-66
2021/07/26 08:25:03;;;;;;;8.07;4.90;;;22.20;89.00;;;;;;5109922;28;20568;-66
2021/07/26 08:27:28;;;;;;;7.72;4.70;;;22.40;88.30;;;;;;5110734;28;20052;-65
2021/07/26 08:29:54;;;;;;;5.75;4.90;;;22.50;88.20;;;;;;5110763;28;20518;-65
2021/07/26 08:32:19;;;;;;;5.28;4.35;;;22.70;87.50;;;;;;5110104;28;20055;-65
2021/07/26 08:34:46;;;;;;;5.75;4.15;;;22.80;86.00;;;;;;5110924;28;20055;-66
2021/07/26 08:37:11;;;;;;;7.20;4.50;;;22.90;86.00;;;;;;5110798;28;20123;-65
2021/07/26 08:39:38;;;;;;;7.03;4.10;;;23.00;85.90;;;;;;5110045;28;20044;-65
2021/07/26 08:42:05;;;;;;;7.53;4.15;;;23.00;84.80;;;;;;5110223;28;20078;-65
2021/07/26 08:44:33;;;;;;;5.95;4.63;;;23.10;84.30;;;;;;5110683;28;20183;-65
2021/07/26 08:47:00;;;;;;;6.75;4.47;;;23.40;84.40;;;;;;5107535;28;20044;-65
2021/07/26 08:49:32;;;;;;;5.80;4.10;;;23.60;84.70;;;;;;5110536;28;20459;-66
2021/07/26 08:51:59;;;;;;;4.85;4.30;;;23.70;83.60;;;;;;5110774;28;20139;-65
2021/07/26 08:54:29;;;;;;;5.55;4.03;;;23.90;83.10;;;;;;5112650;28;20043;-65
2021/07/26 08:56:55;;;;;;;6.25;3.65;;;23.90;82.10;;;;;;5114454;28;20496;-65
2021/07/26 08:59:20;;;;;;;5.55;3.63;;;23.80;81.50;;;;;;5114664;28;20047;-65
2021/07/26 09:01:53;;;;;;;6.15;4.07;;;23.80;80.80;;;;;;5114222;28;20078;-65
2021/07/26 09:04:18;;;;;;;7.72;4.25;;;23.80;79.70;;;;;;5113685;28;20071;-65
2021/07/26 09:06:46;;;;;;;5.25;4.30;;;23.70;79.40;;;;;;5113436;28;20115;-66
2021/07/26 09:09:11;;;;;;;6.43;4.60;;;23.60;79.10;;;;;;5113970;28;20047;-66
2021/07/26 09:11:44;;;;;;;7.03;4.60;;;23.60;78.90;;;;;;5113824;27;20507;-66
2021/07/26 09:14:11;;;;;;;5.47;4.32;;;23.60;78.40;;;;;;5113319;28;20188;-65
2021/07/26 09:16:36;;;;;;;7.03;4.70;;;23.60;78.80;;;;;;5113727;28;20051;-65
2021/07/26 09:19:11;;;;;;;6.32;4.70;;;23.50;78.50;;;;;;5113789;28;20040;-66
2021/07/26 09:21:49;;;;;;;8.25;5.28;;;23.50;78.70;;;;;;5110226;28;20210;-65
2021/07/26 09:24:14;;;;;;;7.28;4.53;;;23.50;79.20;;;;;;5113183;28;20044;-65
2021/07/26 09:26:40;;;;;;;7.65;4.55;;;23.50;79.60;;;;;;5113734;28;20073;-65
2021/07/26 09:29:26;;;;;;;5.07;3.83;;;23.50;79.40;;;;;;5112643;28;20040;-65
2021/07/26 09:31:57;;;;;;;5.78;4.05;;;23.60;78.80;;;;;;5113324;28;20442;-65
2021/07/26 09:34:23;;;;;;;5.88;4.20;;;23.60;79.20;;;;;;5112983;28;20067;-66
2021/07/26 09:36:49;;;;;;;5.40;4.10;;;23.80;79.50;;;;;;5112849;28;20070;-65
2021/07/26 09:39:26;;;;;;;6.45;4.55;;;23.90;79.40;;;;;;5114193;28;20044;-65
2021/07/26 09:41:53;;;;;;;7.93;4.78;;;24.00;77.90;;;;;;5113838;28;20479;-65
2021/07/26 09:44:27;;;;;;;6.75;4.22;;;24.00;77.30;;;;;;5113768;28;20138;-65
2021/07/26 09:47:13;;;;;;;6.68;4.00;;;24.10;77.30;;;;;;5113645;28;20079;-65
2021/07/26 09:49:39;;;;;;;6.95;4.00;;;24.10;77.70;;;;;;5111168;28;20054;-65
2021/07/26 09:52:09;;;;;;;5.40;3.55;;;24.00;76.80;;;;;;5112870;28;20056;-65
2021/07/26 09:54:46;;;;;;;5.70;3.40;;;24.10;76.20;;;;;;5111325;28;20040;-65
2021/07/26 09:57:18;;;;;;;7.80;4.13;;;24.20;75.20;;;;;;5109148;28;20385;-65
2021/07/26 09:59:48;;;;;;;4.38;3.50;;;24.30;74.20;;;;;;5113166;28;20044;-66
2021/07/26 10:02:15;;;;;;;4.18;3.20;;;24.40;73.90;;;;;;5110654;28;20131;-65
2021/07/26 10:04:46;;;;;;;5.30;3.60;;;24.50;73.90;;;;;;5111454;28;20108;-65
2021/07/26 10:07:13;;;;;;;4.90;3.70;;;24.60;73.30;;;;;;5111116;28;20055;-65
2021/07/26 10:09:43;;;;;;;5.30;3.88;;;24.70;72.70;;;;;;5111934;28;20044;-65
2021/07/26 10:12:11;;;;;;;4.78;3.72;;;24.80;72.30;;;;;;5110856;28;20059;-65
2021/07/26 10:14:45;;;;;;;5.68;3.38;;;24.90;72.50;;;;;;5112139;27;20043;-65
2021/07/26 10:17:12;;;;;;;4.47;3.83;;;24.90;71.60;;;;;;5110803;28;20169;-65
2021/07/26 10:19:37;;;;;;;5.22;3.90;;;25.00;72.00;;;;;;5112142;27;20039;-65
2021/07/26 10:22:06;;;;;;;5.35;3.72;;;25.10;71.90;;;;;;5113039;28;20059;-65
2021/07/26 10:24:42;;;;;;;7.53;3.72;;;25.20;71.70;;;;;;5112523;28;20140;-65
2021/07/26 10:27:13;;;;;;;5.68;3.60;;;25.20;70.00;;;;;;5113378;28;20058;-65
2021/07/26 10:29:56;;;;;;;5.93;3.67;;;25.20;69.60;;;;;;5113284;28;20159;-66
2021/07/26 10:32:38;;;;;;;6.35;3.20;;;25.30;69.30;;;;;;5112183;28;20059;-67
2021/07/26 10:35:14;;;;;;;4.70;3.28;;;25.40;70.00;;;;;;5112924;28;20055;-66
2021/07/26 10:37:41;;;;;;;4.65;3.08;;;25.50;69.20;;;;;;5112577;28;20116;-66
2021/07/26 10:40:24;;;;;;;6.30;3.25;;;25.50;68.20;;;;;;5112300;28;20070;-66
2021/07/26 10:42:53;;;;;;;5.93;3.10;;;25.70;67.20;;;;;;5113025;28;20052;-66
2021/07/26 10:45:32;;;;;;;5.13;3.47;;;25.70;67.40;;;;;;5111910;28;20060;-66
2021/07/26 10:48:19;;;;;;;4.03;3.17;;;25.60;67.50;;;;;;5113178;28;20051;-66
2021/07/26 10:50:49;;;;;;;3.22;2.75;;;25.50;67.60;;;;;;5113504;28;20058;-66
2021/07/26 10:53:37;;;;;;;4.70;2.42;;;25.50;66.90;;;;;;5112258;28;20054;-66
2021/07/26 10:56:13;;;;;;;5.03;2.53;;;25.60;64.00;;;;;;5112435;28;20056;-66
2021/07/26 10:58:38;;;;;;;5.25;3.00;;;25.60;63.70;;;;;;5112790;27;20076;-66
2021/07/26 11:01:19;;;;;;;5.60;2.97;;;25.60;63.40;;;;;;5111776;28;20039;-66
2021/07/26 11:03:45;;;;;;;5.40;2.67;;;25.70;63.30;;;;;;5112570;28;20130;-66
2021/07/26 11:06:33;;;;;;;4.68;2.92;;;25.80;63.80;;;;;;5112390;28;20050;-66
2021/07/26 11:09:24;;;;;;;5.65;2.97;;;25.80;64.90;;;;;;5112662;28;20109;-66
2021/07/26 11:11:52;;;;;;;5.70;3.20;;;25.80;65.40;;;;;;5103715;28;20512;-66
2021/07/26 11:14:18;;;;;;;4.63;2.85;;;25.90;65.80;;;;;;5111923;28;20052;-66
2021/07/26 11:16:56;;;;;;;4.22;2.97;;;25.90;65.60;;;;;;5112149;28;20051;-66
2021/07/26 11:19:40;;;;;;;6.68;2.95;;;26.00;65.70;;;;;;5112219;28;20138;-66
2021/07/26 11:22:15;;;;;;;4.95;3.03;;;26.10;65.00;;;;;;5111251;28;20047;-66
2021/07/26 11:24:44;;;;;;;4.18;2.60;;;26.10;64.60;;;;;;5112410;27;20044;-66
2021/07/26 11:27:32;;;;;;;3.95;2.60;;;26.00;63.10;;;;;;5111888;28;20058;-66
2021/07/26 11:29:58;;;;;;;4.50;2.67;;;25.90;62.60;;;;;;5102544;28;20539;-66
2021/07/26 11:32:26;;;;;;;5.18;2.90;;;26.00;63.10;;;;;;5112118;28;20075;-67
2021/07/26 11:34:57;;;;;;;4.20;2.40;;;26.00;62.40;;;;;;5111407;28;20043;-66
2021/07/26 11:37:35;;;;;;;3.20;2.05;;;25.80;60.90;;;;;;5111730;28;20047;-66
2021/07/26 11:40:11;;;;;;;3.58;2.22;;;25.80;60.30;;;;;;5112141;28;20052;-66
2021/07/26 11:42:39;;;;;;;5.28;2.42;;;25.70;62.00;;;;;;5111406;28;20047;-65
2021/07/26 11:45:06;;;;;;;4.28;2.60;;;25.60;62.60;;;;;;5111895;28;20135;-65
2021/07/26 11:47:43;;;;;;;4.00;2.72;;;25.60;63.20;;;;;;5112358;28;20378;-65
2021/07/26 11:50:10;;;;;;;4.10;2.60;;;25.70;63.20;;;;;;5110775;28;20051;-65
2021/07/26 11:52:36;;;;;;;2.92;2.35;;;25.80;63.10;;;;;;5112100;28;20047;-65
2021/07/26 11:55:11;;;;;;;3.45;2.75;;;25.90;63.60;;;;;;5111816;28;20052;-66
2021/07/26 11:57:37;;;;;;;5.03;2.97;;;26.10;62.90;;;;;;5111328;28;20051;-66
2021/07/26 12:00:06;;;;;;;2.72;2.20;;;26.30;61.80;;;;;;5111483;28;20112;-66
2021/07/26 12:02:40;;;;;;;2.97;2.22;;;26.30;60.80;;;;;;5111491;28;20451;-66
2021/07/26 12:05:07;;;;;;;4.28;2.90;;;26.30;60.00;;;;;;5111747;28;20051;-66
2021/07/26 12:07:43;;;;;;;4.55;2.70;;;26.30;60.80;;;;;;5111958;28;20124;-65
2021/07/26 12:10:11;;;;;;;2.88;2.35;;;26.40;60.80;;;;;;5110747;28;20134;-65
2021/07/26 12:12:38;;;;;;;4.30;2.60;;;26.30;61.10;;;;;;5111907;28;20067;-65
2021/07/26 12:15:23;;;;;;;2.92;2.10;;;26.30;60.70;;;;;;5111378;28;20071;-65
2021/07/26 12:18:02;;;;;;;3.35;2.33;;;26.10;60.00;;;;;;5110843;28;20093;-66
2021/07/26 12:20:28;;;;;;;4.30;2.63;;;25.90;60.40;;;;;;5111784;28;20063;-65
2021/07/26 12:22:54;;;;;;;3.25;2.03;;;25.90;60.40;;;;;;5111693;28;20047;-66
2021/07/26 12:25:22;;;;;;;3.05;2.08;;;26.00;59.90;;;;;;5110615;28;20059;-65
2021/07/26 12:28:03;;;;;;;3.65;2.40;;;26.00;59.60;;;;;;5112167;28;20493;-66
2021/07/26 12:30:36;;;;;;;4.10;2.58;;;25.90;59.70;;;;;;5115916;28;20108;-66
2021/07/26 12:33:03;;;;;;;5.13;1.98;;;25.90;61.20;;;;;;5114951;28;20122;-66
2021/07/26 12:35:29;;;;;;;3.88;2.10;;;26.00;61.80;;;;;;5115765;28;20055;-66
2021/07/26 12:38:06;;;;;;;3.22;2.20;;;26.10;60.20;;;;;;5114709;28;20138;-66
2021/07/26 12:40:35;;;;;;;3.72;2.00;;;26.20;60.20;;;;;;5115747;28;20047;-66
2021/07/26 12:43:24;;;;;;;3.80;2.17;;;26.00;59.60;;;;;;5115541;28;20047;-65